Bright Hope — HPTM — position and weather

sailwx.info

Track history (hours):
 
Tides and Currents Weather Stations Pressure Air Temp Water Temp Dewpoint Dewpoint Depression Visibility Wind Speed Wind Dir Waves Ship Positions

Bright Hope

Last reported at 2017-Oct-16 14:00 UTC. Time now 2017-Oct-17 20:52 UTC.
Position N 01°15' E 104°09'.

Length 170 m; draft 9.5 m.

Type: Cargo ship. MMSI: 371117000.

Date/timePositionNaut miles runAvg speedWind from/ knotsBaromVisibWave heightAir tempDewpointWater temp
2017-Oct-16 14:00N 01°15' E 104°09'2 2.2
2017-Oct-16 13:19N 01°15' E 104°07'1 2.4
2017-Oct-16 13:00N 01°15' E 104°06'1 2.1
2017-Oct-16 12:29N 01°15' E 104°05'1 2.1
2017-Oct-16 12:00N 01°15' E 104°04'1 2.1
2017-Oct-16 11:30N 01°14' E 104°03'10 5.4
2017-Oct-16 09:35N 01°15' E 103°53'0 0.0
2017-Oct-16 07:44N 01°15' E 103°53'0 0.1
2017-Oct-16 06:27N 01°15' E 103°53'0 0.0
2017-Oct-16 04:53N 01°15' E 103°53'0 0.0
2017-Oct-16 04:26N 01°15' E 103°53'12 8.2
2017-Oct-16 02:55N 01°15' E 104°06'410.7
2017-Oct-16 02:30N 01°14' E 104°01'5 9.9
2017-Oct-16 02:00N 01°13' E 103°56'3 5.5
2017-Oct-16 01:30N 01°15' E 103°54'3 6.3
2017-Oct-16 01:00N 01°12' E 103°53'3 6.3
2017-Oct-16 00:30N 01°15' E 103°53'0 0.0
2017-Oct-16 00:00N 01°15' E 103°53'0 0.0
2017-Oct-15 23:30N 01°15' E 103°53'0 0.0
2017-Oct-15 23:00N 01°15' E 103°53'0 0.1
2017-Oct-15 22:30N 01°15' E 103°53'0 0.1
2017-Oct-15 22:00N 01°15' E 103°53'0 0.2
2017-Oct-15 21:24N 01°15' E 103°53'0 0.0
2017-Oct-15 21:00N 01°15' E 103°53'0 0.2
2017-Oct-15 20:30N 01°15' E 103°53'0 0.1
2017-Oct-15 20:00N 01°15' E 103°53'0 0.2
2017-Oct-15 19:30N 01°15' E 103°53'0 0.1
2017-Oct-15 19:00N 01°15' E 103°53'0 0.0
2017-Oct-15 18:30N 01°15' E 103°53'0 0.1
2017-Oct-15 18:00N 01°15' E 103°53'0 0.0
2017-Oct-15 17:30N 01°15' E 103°53'0 0.0
2017-Oct-15 17:00N 01°15' E 103°53'0 0.0
2017-Oct-15 16:30N 01°15' E 103°53'0 0.0
2017-Oct-15 16:00N 01°15' E 103°53'0 0.0
2017-Oct-15 15:30N 01°15' E 103°53'0 0.0
2017-Oct-15 15:00N 01°15' E 103°53'2 2.2
2017-Oct-15 14:00N 01°13' E 103°53'4 7.5
2017-Oct-15 13:30N 01°11' E 103°51'4 8.2
2017-Oct-15 13:00N 01°09' E 103°47'510.1
2017-Oct-15 12:30N 01°05' E 103°43'510.2
2017-Oct-15 11:58N 01°03' E 103°38'511.3
2017-Oct-15 11:30N 01°06' E 103°34'611.7
2017-Oct-15 11:00N 01°09' E 103°29'611.2
2017-Oct-15 10:30N 01°12' E 103°24'  
Track history (hours):
 
Tides and Currents Weather Stations Pressure Air Temp Water Temp Dewpoint Dewpoint Depression Visibility Wind Speed Wind Dir Waves Ship Positions

Bright Hope

Last reported at 2017-Oct-16 14:00 UTC. Time now 2017-Oct-17 20:52 UTC.
Position N 01°15' E 104°09'.

Length 170 m; draft 9.5 m.

Type: Cargo ship. MMSI: 371117000.

Date/timePositionNaut miles runAvg speedWind from/ knotsBaromVisibWave heightAir tempDewpointWater temp
2017-Oct-16 14:00N 01°15' E 104°09'2 2.2
2017-Oct-16 13:19N 01°15' E 104°07'1 2.4
2017-Oct-16 13:00N 01°15' E 104°06'1 2.1
2017-Oct-16 12:29N 01°15' E 104°05'1 2.1
2017-Oct-16 12:00N 01°15' E 104°04'1 2.1
2017-Oct-16 11:30N 01°14' E 104°03'10 5.4
2017-Oct-16 09:35N 01°15' E 103°53'0 0.0
2017-Oct-16 07:44N 01°15' E 103°53'0 0.1
2017-Oct-16 06:27N 01°15' E 103°53'0 0.0
2017-Oct-16 04:53N 01°15' E 103°53'0 0.0
2017-Oct-16 04:26N 01°15' E 103°53'12 8.2
2017-Oct-16 02:55N 01°15' E 104°06'410.7
2017-Oct-16 02:30N 01°14' E 104°01'5 9.9
2017-Oct-16 02:00N 01°13' E 103°56'3 5.5
2017-Oct-16 01:30N 01°15' E 103°54'3 6.3
2017-Oct-16 01:00N 01°12' E 103°53'3 6.3
2017-Oct-16 00:30N 01°15' E 103°53'0 0.0
2017-Oct-16 00:00N 01°15' E 103°53'0 0.0
2017-Oct-15 23:30N 01°15' E 103°53'0 0.0
2017-Oct-15 23:00N 01°15' E 103°53'0 0.1
2017-Oct-15 22:30N 01°15' E 103°53'0 0.1
2017-Oct-15 22:00N 01°15' E 103°53'0 0.2
2017-Oct-15 21:24N 01°15' E 103°53'0 0.0
2017-Oct-15 21:00N 01°15' E 103°53'0 0.2
2017-Oct-15 20:30N 01°15' E 103°53'0 0.1
2017-Oct-15 20:00N 01°15' E 103°53'0 0.2
2017-Oct-15 19:30N 01°15' E 103°53'0 0.1
2017-Oct-15 19:00N 01°15' E 103°53'0 0.0
2017-Oct-15 18:30N 01°15' E 103°53'0 0.1
2017-Oct-15 18:00N 01°15' E 103°53'0 0.0
2017-Oct-15 17:30N 01°15' E 103°53'0 0.0
2017-Oct-15 17:00N 01°15' E 103°53'0 0.0
2017-Oct-15 16:30N 01°15' E 103°53'0 0.0
2017-Oct-15 16:00N 01°15' E 103°53'0 0.0
2017-Oct-15 15:30N 01°15' E 103°53'0 0.0
2017-Oct-15 15:00N 01°15' E 103°53'2 2.2
2017-Oct-15 14:00N 01°13' E 103°53'4 7.5
2017-Oct-15 13:30N 01°11' E 103°51'4 8.2
2017-Oct-15 13:00N 01°09' E 103°47'510.1
2017-Oct-15 12:30N 01°05' E 103°43'510.2
2017-Oct-15 11:58N 01°03' E 103°38'511.3
2017-Oct-15 11:30N 01°06' E 103°34'611.7
2017-Oct-15 11:00N 01°09' E 103°29'611.2
2017-Oct-15 10:30N 01°12' E 103°24'  

Dump ship's entire track history